Current Weather

Chicago O'Hare International

Chicago, Illinois (KORD)

Report from: Tuesday, February 27, 2024 3:51 AM CST
Current time: Tuesday, February 27, 2024 4:09 AM CST

Nearby weather – Weather history – Daily summaries
Weather forecast

Temperature13.9°C (57.0°F)
Dew point11.7°C (53.1°F)
Winds 15 kts (7.7 m/s, 17.3 mph) South-Southwest (200°)
Wind gusts 22 kts (11.3 m/s, 25.3 mph)
Visibility10 mi. (16.1 km)
Clouds Few clouds 1,300 ft. (396 m)
Scattered clouds 25,000 ft. (7,620 m)
Altimeter29.41 in.Hg (996 mB)
Relative humidity87 %
Density altitude664 ft. (202 m)
Sea-level pressure99.6 kPa (996 mB, 29.40 in.Hg)
Remarks Automated weather observing station with precipitation discriminator
Flight conditions Visual Meteorological Conditions
Raw dataKORD 270951Z 20015G22KT 10SM FEW013 SCT250 14/12 A2941 RMK AO2 SLP956 T01390117
An error has occurred. This application may no longer respond until reloaded. Reload 🗙